Time;durP1;ratioP1;P1;durP2;ratioP2;P2;SDS_P1;SDS_P2;PMS_P1;PMS_P2;Temp;Humidity;BMP_temperature;BMP_pressure;BME280_temperature;BME280_humidity;BME280_pressure;Samples;Min_cycle;Max_cycle;Signal;HPM_P1;HPM_P2
2023/09/18 00:01:44;;;;;;;0.50;0.43;;;24.10;71.70;;;;;;6312581;28;20528;-51
2023/09/18 00:04:45;;;;;;;0.43;0.40;;;23.90;71.90;;;;;;6312804;28;20396;-50
2023/09/18 00:07:47;;;;;;;0.30;0.30;;;24.00;72.00;;;;;;6311848;28;20438;-49
2023/09/18 00:10:51;;;;;;;0.50;0.47;;;23.90;71.90;;;;;;6311672;28;20036;-46
2023/09/18 00:13:55;;;;;;;0.70;0.50;;;23.90;71.90;;;;;;6311787;28;20066;-50
2023/09/18 00:16:57;;;;;;;0.77;0.40;;;24.20;72.50;;;;;;6312409;28;20205;-49
2023/09/18 00:20:09;;;;;;;0.88;0.60;;;24.00;72.10;;;;;;6312827;28;20055;-47
2023/09/18 00:23:21;;;;;;;0.60;0.50;;;24.20;72.30;;;;;;6312887;28;20032;-49
2023/09/18 00:26:23;;;;;;;0.65;0.60;;;23.70;72.10;;;;;;6312545;28;20157;-49
2023/09/18 00:29:27;;;;;;;0.82;0.60;;;24.00;72.00;;;;;;6312037;28;20040;-47
2023/09/18 00:32:31;;;;;;;0.40;0.40;;;24.00;72.10;;;;;;6312478;28;20107;-51
2023/09/18 00:35:34;;;;;;;0.50;0.50;;;24.20;72.40;;;;;;6312638;28;20033;-49
2023/09/18 00:38:37;;;;;;;0.60;0.60;;;24.10;72.30;;;;;;6312412;28;20040;-50
2023/09/18 00:41:40;;;;;;;0.90;0.70;;;23.90;72.30;;;;;;6311201;28;20071;-46
2023/09/18 00:44:42;;;;;;;0.85;0.52;;;24.10;72.40;;;;;;6312649;28;20051;-49
2023/09/18 00:47:44;;;;;;;0.50;0.45;;;24.00;72.50;;;;;;6312364;28;20062;-48
2023/09/18 00:50:48;;;;;;;0.60;0.50;;;24.00;72.20;;;;;;6312176;28;20040;-46
2023/09/18 00:53:52;;;;;;;0.77;0.40;;;24.00;72.60;;;;;;6311883;28;20048;-51
2023/09/18 00:56:54;;;;;;;0.52;0.50;;;24.00;72.60;;;;;;6311957;28;20048;-49
2023/09/18 00:59:56;;;;;;;1.10;0.82;;;23.60;72.40;;;;;;6313438;28;20048;-50
2023/09/18 01:02:57;;;;;;;0.82;0.50;;;24.30;72.90;;;;;;6316700;28;20568;-47
2023/09/18 01:05:59;;;;;;;0.73;0.52;;;24.00;73.00;;;;;;6316440;28;20036;-47
2023/09/18 01:09:11;;;;;;;0.70;0.57;;;24.00;73.00;;;;;;6314771;28;20044;-51
2023/09/18 01:12:18;;;;;;;;;;;24.20;73.00;;;;;;6314242;28;20036;-50
2023/09/18 01:15:25;;;;;;;0.90;0.50;;;23.90;73.20;;;;;;6311893;28;20027;-51
2023/09/18 01:18:27;;;;;;;0.60;0.40;;;24.70;73.20;;;;;;6313207;28;20040;-52
2023/09/18 01:21:29;;;;;;;0.60;0.50;;;23.90;72.90;;;;;;6312559;28;20688;-49
2023/09/18 01:31:37;;;;;;;0.60;0.50;;;23.90;70.90;;;;;;6315532;23;20036;-91
2023/09/18 01:38:26;;;;;;;0.52;0.47;;;23.90;71.00;;;;;;6141364;28;20099;-91
2023/09/18 01:41:36;;;;;;;0.77;0.55;;;23.80;73.60;;;;;;6159114;28;20039;-91
2023/09/18 01:44:44;;;;;;;0.57;0.40;;;23.70;74.70;;;;;;6159079;28;20067;-91
2023/09/18 01:48:13;;;;;;;0.73;0.50;;;23.50;74.30;;;;;;6099784;28;20091;-91
2023/09/18 01:51:21;;;;;;;0.73;0.60;;;24.30;74.90;;;;;;6134779;28;20099;-92
2023/09/18 01:54:32;;;;;;;0.47;0.47;;;23.60;74.70;;;;;;6133847;28;20040;-91
2023/09/18 01:57:37;;;;;;;0.60;0.50;;;24.50;74.50;;;;;;6119123;28;20040;-91
2023/09/18 02:00:58;;;;;;;0.70;0.57;;;23.70;74.90;;;;;;6133325;29;20040;-92
2023/09/18 02:04:07;;;;;;;0.50;0.50;;;23.90;75.00;;;;;;6133728;28;20120;-91
2023/09/18 02:07:38;;;;;;;0.80;0.55;;;24.20;74.60;;;;;;6120661;29;20044;-91
2023/09/18 02:10:48;;;;;;;0.60;0.50;;;24.00;74.40;;;;;;6088735;29;20052;-91
2023/09/18 02:14:04;;;;;;;0.90;0.40;;;23.80;74.30;;;;;;6178398;23;20075;-91
2023/09/18 02:17:09;;;;;;;0.70;0.60;;;21.70;73.50;;;;;;6165532;28;20047;-91
2023/09/18 02:20:31;;;;;;;0.85;0.68;;;20.80;74.30;;;;;;6119841;28;20043;-90
2023/09/18 02:30:29;;;;;;;0.50;0.50;;;23.90;72.00;;;;;;6181124;28;20064;-91
2023/09/18 02:33:37;;;;;;;0.57;0.50;;;22.80;75.00;;;;;;6164989;28;20035;-91
2023/09/18 02:50:46;;;;;;;0.70;0.70;;;;;;;;;;6947108;23;20036;-91
2023/09/18 03:19:48;;;;;;;0.85;0.63;;;23.60;91.30;;;;;;6495457;27;20432;-52
2023/09/18 03:22:50;;;;;;;2.25;0.70;;;23.90;78.10;;;;;;6436758;27;20041;-49
2023/09/18 03:25:52;;;;;;;0.65;0.60;;;23.80;78.10;;;;;;6437660;27;20046;-51
2023/09/18 03:28:54;;;;;;;0.63;0.45;;;23.90;78.20;;;;;;6438438;27;20030;-54
2023/09/18 03:31:58;;;;;;;0.60;0.60;;;23.90;78.30;;;;;;6437906;27;20608;-52
2023/09/18 03:35:00;;;;;;;1.15;0.70;;;23.90;78.00;;;;;;6427812;27;20409;-52
2023/09/18 03:38:03;;;;;;;1.90;0.93;;;23.60;77.90;;;;;;6411818;27;20045;-50
2023/09/18 03:41:06;;;;;;;0.90;0.50;;;23.50;76.70;;;;;;6408577;27;20042;-50
2023/09/18 03:44:09;;;;;;;0.93;0.70;;;24.10;75.50;;;;;;6408321;27;20035;-47
2023/09/18 03:47:11;;;;;;;0.50;0.50;;;24.10;77.90;;;;;;6409116;27;20070;-49
2023/09/18 03:50:13;;;;;;;0.40;0.40;;;24.00;77.90;;;;;;6409327;27;20512;-51
2023/09/18 03:53:15;;;;;;;0.75;0.60;;;24.00;77.80;;;;;;6408895;27;20027;-48
2023/09/18 03:56:17;;;;;;;0.88;0.70;;;23.70;78.00;;;;;;6409633;27;20042;-50
2023/09/18 03:59:21;;;;;;;0.95;0.50;;;24.00;77.80;;;;;;6409911;27;20087;-53
2023/09/18 04:02:26;;;;;;;0.40;0.40;;;24.00;78.00;;;;;;6410715;27;20114;-47
2023/09/18 04:05:28;;;;;;;0.60;0.60;;;24.10;78.00;;;;;;6375574;27;20037;-53
2023/09/18 04:08:31;;;;;;;0.35;0.35;;;23.90;78.00;;;;;;6410846;27;20038;-51
2023/09/18 04:11:35;;;;;;;1.00;0.50;;;23.90;78.00;;;;;;6410179;27;20058;-49
2023/09/18 04:14:38;;;;;;;0.40;0.40;;;23.50;77.80;;;;;;6407066;27;20046;-49
2023/09/18 04:17:41;;;;;;;0.50;0.50;;;24.00;78.20;;;;;;6408121;27;20034;-50
2023/09/18 04:20:44;;;;;;;0.52;0.50;;;24.00;78.60;;;;;;6407897;27;20532;-50
2023/09/18 04:23:46;;;;;;;1.05;0.80;;;24.00;78.20;;;;;;6408545;27;20512;-50
2023/09/18 04:26:48;;;;;;;0.50;0.50;;;23.90;78.20;;;;;;6408771;27;20161;-50
2023/09/18 04:29:51;;;;;;;0.50;0.50;;;24.00;78.10;;;;;;6398453;27;20136;-47
2023/09/18 04:32:58;;;;;;;0.77;0.60;;;23.60;79.40;;;;;;6391934;27;20462;-50
2023/09/18 04:36:00;;;;;;;0.50;0.45;;;24.10;76.00;;;;;;6393458;27;20319;-53
2023/09/18 04:39:04;;;;;;;0.50;0.50;;;24.00;78.50;;;;;;6391950;27;20349;-51
2023/09/18 04:42:06;;;;;;;0.57;0.57;;;24.10;76.10;;;;;;6392991;27;20105;-51
2023/09/18 04:45:08;;;;;;;0.70;0.50;;;24.00;78.90;;;;;;6391676;27;20035;-53
2023/09/18 04:48:11;;;;;;;0.63;0.60;;;23.90;78.70;;;;;;6393094;27;20322;-52
2023/09/18 04:51:14;;;;;;;0.85;0.40;;;23.70;79.00;;;;;;6393388;27;20359;-51
2023/09/18 04:54:15;;;;;;;0.47;0.47;;;23.50;78.80;;;;;;6392644;27;20489;-52
2023/09/18 04:57:17;;;;;;;0.40;0.40;;;24.00;79.00;;;;;;6392510;27;20031;-51
2023/09/18 05:00:25;;;;;;;1.23;0.50;;;;;;;;;;6391857;27;20061;-52
2023/09/18 05:03:28;;;;;;;0.35;0.35;;;23.80;77.80;;;;;;6391661;27;20069;-54
2023/09/18 05:06:32;;;;;;;0.68;0.60;;;23.80;78.30;;;;;;6375275;27;20035;-54
2023/09/18 05:09:34;;;;;;;0.60;0.60;;;24.00;78.30;;;;;;6393370;27;20115;-54
2023/09/18 05:12:37;;;;;;;0.40;0.40;;;23.90;77.90;;;;;;6393426;27;20042;-54
2023/09/18 05:15:39;;;;;;;0.50;0.50;;;23.50;77.70;;;;;;6393241;27;20039;-50
2023/09/18 05:18:41;;;;;;;0.60;0.60;;;23.90;78.10;;;;;;6392254;27;20121;-52
2023/09/18 05:21:43;;;;;;;0.52;0.52;;;23.90;78.00;;;;;;6391937;27;20042;-52
2023/09/18 05:24:46;;;;;;;0.40;0.40;;;23.90;77.90;;;;;;6393180;27;20099;-54
2023/09/18 05:27:48;;;;;;;0.80;0.70;;;24.00;78.10;;;;;;6392554;27;20062;-54
2023/09/18 05:30:49;;;;;;;1.48;0.63;;;24.10;78.90;;;;;;6393202;27;20062;-53
2023/09/18 05:33:51;;;;;;;0.80;0.80;;;23.50;91.70;;;;;;6391295;27;20303;-50
2023/09/18 05:36:53;;;;;;;0.60;0.60;;;23.90;79.20;;;;;;6392169;27;20042;-52
2023/09/18 06:46:56;;;;;;;1.20;1.10;;;23.70;76.90;;;;;;6237046;28;20042;-90
2023/09/18 06:50:00;;;;;;;1.00;0.90;;;;;;;;;;6229705;28;20053;-91
2023/09/18 06:53:03;;;;;;;2.47;1.10;;;23.70;74.50;;;;;;6219221;28;20301;-91
2023/09/18 06:56:13;;;;;;;0.80;0.77;;;23.50;79.60;;;;;;6241482;28;20087;-89
2023/09/18 07:02:52;;;;;;;1.45;1.00;;;23.70;80.60;;;;;;6229939;28;20068;-90
2023/09/18 07:20:13;;;;;;;0.98;0.80;;;23.90;79.10;;;;;;6227957;28;20049;-91
2023/09/18 07:27:03;;;;;;;2.90;1.15;;;22.30;74.60;;;;;;6355889;22;20636;-54
2023/09/18 07:44:55;;;;;;;1.25;1.00;;;24.00;80.80;;;;;;6551255;22;20040;-55
